Terminal Aerodrome Forecast
Issued by NWS

Home | Current Version | Previous Version | Text Only | Print | Product List | Glossary Off
Versions: 1 2 3 4 5 6 7 8 9 10 11 12

000
FTUS43 KMPX 200520
TAFRWF
TAF
KRWF 200520Z 2006/2106 35003KT P6SM OVC150
     FM201200 31006KT P6SM SCT050 OVC100
     FM210100 27003KT P6SM SCT150=

USA.gov is the U.S. government's official web portal to all federal, state and local government web resources and services.